sensor_id;sensor_type;location;lat;lon;timestamp;pressure;altitude;pressure_sealevel;temperature;humidity
27958;BME280;15295;42.658;23.374;2023-02-04T00:00:07;94366.34;;;6.69;50.98
27958;BME280;15295;42.658;23.374;2023-02-04T00:02:39;94364.38;;;6.66;51.50
27958;BME280;15295;42.658;23.374;2023-02-04T00:05:06;94386.97;;;6.80;51.71
27958;BME280;15295;42.658;23.374;2023-02-04T00:07:31;94343.31;;;6.49;51.63
27958;BME280;15295;42.658;23.374;2023-02-04T00:09:57;94376.50;;;6.79;51.74
27958;BME280;15295;42.658;23.374;2023-02-04T00:12:23;94363.97;;;6.64;52.09
27958;BME280;15295;42.658;23.374;2023-02-04T00:14:48;94322.00;;;6.51;52.13
27958;BME280;15295;42.658;23.374;2023-02-04T00:17:14;94354.38;;;6.73;52.48
27958;BME280;15295;42.658;23.374;2023-02-04T00:19:39;94327.41;;;6.51;52.38
27958;BME280;15295;42.658;23.374;2023-02-04T00:22:07;94314.22;;;6.49;52.72
27958;BME280;15295;42.658;23.374;2023-02-04T00:24:34;94304.38;;;6.27;52.90
27958;BME280;15295;42.658;23.374;2023-02-04T00:27:00;94322.00;;;6.51;52.78
27958;BME280;15295;42.658;23.374;2023-02-04T00:29:27;94307.22;;;6.45;52.68
27958;BME280;15295;42.658;23.374;2023-02-04T00:31:55;94314.56;;;6.41;52.82
27958;BME280;15295;42.658;23.374;2023-02-04T00:34:21;94313.06;;;6.47;52.83
27958;BME280;15295;42.658;23.374;2023-02-04T00:36:46;94306.06;;;6.46;53.05
27958;BME280;15295;42.658;23.374;2023-02-04T00:39:15;94349.28;;;6.72;52.94
27958;BME280;15295;42.658;23.374;2023-02-04T00:41:45;94357.84;;;6.74;52.82
27958;BME280;15295;42.658;23.374;2023-02-04T00:44:12;94299.03;;;6.38;53.04
27958;BME280;15295;42.658;23.374;2023-02-04T00:46:40;94358.59;;;6.71;52.96
27958;BME280;15295;42.658;23.374;2023-02-04T00:49:12;94312.66;;;6.48;52.95
27958;BME280;15295;42.658;23.374;2023-02-04T00:51:42;94312.97;;;6.33;53.24
27958;BME280;15295;42.658;23.374;2023-02-04T00:54:15;94325.09;;;6.49;53.27
27958;BME280;15295;42.658;23.374;2023-02-04T00:56:43;94300.97;;;6.37;53.37
27958;BME280;15295;42.658;23.374;2023-02-04T00:59:15;94321.25;;;6.54;52.94
27958;BME280;15295;42.658;23.374;2023-02-04T01:01:46;94293.59;;;6.38;53.08
27958;BME280;15295;42.658;23.374;2023-02-04T01:04:13;94332.13;;;6.61;53.30
27958;BME280;15295;42.658;23.374;2023-02-04T01:06:41;94288.94;;;6.38;53.50
27958;BME280;15295;42.658;23.374;2023-02-04T01:09:15;94259.03;;;6.28;53.18
27958;BME280;15295;42.658;23.374;2023-02-04T01:11:44;94276.09;;;6.32;53.45
27958;BME280;15295;42.658;23.374;2023-02-04T01:14:18;94286.09;;;6.20;53.86
27958;BME280;15295;42.658;23.374;2023-02-04T01:16:43;94279.63;;;6.36;53.70
27958;BME280;15295;42.658;23.374;2023-02-04T01:19:14;94293.19;;;6.32;53.97
27958;BME280;15295;42.658;23.374;2023-02-04T01:21:42;94235.56;;;5.98;54.14
27958;BME280;15295;42.658;23.374;2023-02-04T01:24:15;94276.03;;;6.17;54.27
27958;BME280;15295;42.658;23.374;2023-02-04T01:26:43;94215.72;;;5.87;54.22
27958;BME280;15295;42.658;23.374;2023-02-04T01:29:08;94238.25;;;5.95;54.36
27958;BME280;15295;42.658;23.374;2023-02-04T01:31:34;94274.44;;;6.16;54.45
27958;BME280;15295;42.658;23.374;2023-02-04T01:34:01;94245.31;;;6.10;54.58
27958;BME280;15295;42.658;23.374;2023-02-04T01:36:27;94234.88;;;6.12;54.27
27958;BME280;15295;42.658;23.374;2023-02-04T01:38:53;94233.25;;;6.00;54.37
27958;BME280;15295;42.658;23.374;2023-02-04T01:41:20;94263.66;;;6.27;54.45
27958;BME280;15295;42.658;23.374;2023-02-04T01:43:47;94260.13;;;6.19;54.34
27958;BME280;15295;42.658;23.374;2023-02-04T01:46:13;94249.66;;;6.18;54.28
27958;BME280;15295;42.658;23.374;2023-02-04T01:48:41;94211.53;;;5.97;54.51
27958;BME280;15295;42.658;23.374;2023-02-04T01:51:11;94216.53;;;5.91;54.31
27958;BME280;15295;42.658;23.374;2023-02-04T01:53:39;94221.25;;;6.01;54.37
27958;BME280;15295;42.658;23.374;2023-02-04T01:56:18;94212.31;;;6.01;54.56
27958;BME280;15295;42.658;23.374;2023-02-04T01:58:45;94219.31;;;5.98;54.15
27958;BME280;15295;42.658;23.374;2023-02-04T02:01:37;94218.56;;;6.05;53.76
27958;BME280;15295;42.658;23.374;2023-02-04T02:04:04;94221.63;;;6.00;53.99
27958;BME280;15295;42.658;23.374;2023-02-04T02:06:30;94204.50;;;5.92;53.70
27958;BME280;15295;42.658;23.374;2023-02-04T02:08:56;94220.63;;;6.26;53.87
27958;BME280;15295;42.658;23.374;2023-02-04T02:11:23;94235.75;;;6.23;53.77
27958;BME280;15295;42.658;23.374;2023-02-04T02:13:51;94211.16;;;5.98;53.75
27958;BME280;15295;42.658;23.374;2023-02-04T02:16:25;94197.59;;;5.98;53.75
27958;BME280;15295;42.658;23.374;2023-02-04T02:18:53;94213.25;;;6.22;53.67
27958;BME280;15295;42.658;23.374;2023-02-04T02:21:37;94186.03;;;6.08;53.58
27958;BME280;15295;42.658;23.374;2023-02-04T02:24:26;94220.69;;;6.33;53.37
27958;BME280;15295;42.658;23.374;2023-02-04T02:26:57;94214.88;;;6.31;53.24
27958;BME280;15295;42.658;23.374;2023-02-04T02:29:24;94181.09;;;6.24;52.95
27958;BME280;15295;42.658;23.374;2023-02-04T02:32:02;94185.69;;;6.13;53.29
27958;BME280;15295;42.658;23.374;2023-02-04T02:34:37;94182.16;;;6.09;53.75
27958;BME280;15295;42.658;23.374;2023-02-04T02:37:06;94158.59;;;6.20;53.22
27958;BME280;15295;42.658;23.374;2023-02-04T02:39:41;94110.81;;;5.98;53.09
27958;BME280;15295;42.658;23.374;2023-02-04T02:42:17;94143.84;;;6.18;53.18
27958;BME280;15295;42.658;23.374;2023-02-04T02:44:44;94118.22;;;6.12;52.92
27958;BME280;15295;42.658;23.374;2023-02-04T02:47:20;94112.41;;;6.10;52.63
27958;BME280;15295;42.658;23.374;2023-02-04T02:49:49;94089.91;;;6.02;52.53
27958;BME280;15295;42.658;23.374;2023-02-04T02:52:20;94102.31;;;6.03;52.58
27958;BME280;15295;42.658;23.374;2023-02-04T02:54:48;94131.88;;;6.26;52.53
27958;BME280;15295;42.658;23.374;2023-02-04T02:57:23;94103.47;;;6.06;52.59
27958;BME280;15295;42.658;23.374;2023-02-04T02:59:49;94117.94;;;6.28;52.55
27958;BME280;15295;42.658;23.374;2023-02-04T03:02:19;94120.66;;;6.28;52.57
27958;BME280;15295;42.658;23.374;2023-02-04T03:04:51;94107.78;;;6.14;52.46
27958;BME280;15295;42.658;23.374;2023-02-04T03:07:18;94121.03;;;6.26;52.35
27958;BME280;15295;42.658;23.374;2023-02-04T03:10:05;94107.06;;;6.24;52.28
27958;BME280;15295;42.658;23.374;2023-02-04T03:12:31;94104.72;;;6.22;52.05
27958;BME280;15295;42.658;23.374;2023-02-04T03:15:00;94101.13;;;5.97;52.42
27958;BME280;15295;42.658;23.374;2023-02-04T03:17:25;94134.16;;;6.17;52.54
27958;BME280;15295;42.658;23.374;2023-02-04T03:19:51;94146.59;;;6.25;52.60
27958;BME280;15295;42.658;23.374;2023-02-04T03:22:19;94107.75;;;6.07;52.40
27958;BME280;15295;42.658;23.374;2023-02-04T03:24:48;94110.09;;;6.08;52.28
27958;BME280;15295;42.658;23.374;2023-02-04T03:27:19;94108.56;;;6.14;52.33
27958;BME280;15295;42.658;23.374;2023-02-04T03:29:45;94122.22;;;6.29;52.35
27958;BME280;15295;42.658;23.374;2023-02-04T03:32:11;94106.25;;;6.16;52.11
27958;BME280;15295;42.658;23.374;2023-02-04T03:34:37;94128.03;;;6.38;51.98
27958;BME280;15295;42.658;23.374;2023-02-04T03:37:04;94096.19;;;6.20;52.18
27958;BME280;15295;42.658;23.374;2023-02-04T03:39:29;94083.69;;;5.98;52.20
27958;BME280;15295;42.658;23.374;2023-02-04T03:41:58;94084.50;;;6.09;52.00
27958;BME280;15295;42.658;23.374;2023-02-04T03:44:32;94098.16;;;6.23;51.77
27958;BME280;15295;42.658;23.374;2023-02-04T03:46:59;94121.88;;;6.44;51.75
27958;BME280;15295;42.658;23.374;2023-02-04T03:49:28;94074.09;;;6.15;51.83
27958;BME280;15295;42.658;23.374;2023-02-04T03:52:00;94095.88;;;6.33;51.95
27958;BME280;15295;42.658;23.374;2023-02-04T03:54:39;94078.31;;;6.12;51.98
27958;BME280;15295;42.658;23.374;2023-02-04T03:57:07;94062.44;;;6.14;52.06
27958;BME280;15295;42.658;23.374;2023-02-04T03:59:37;94056.28;;;6.24;51.83
27958;BME280;15295;42.658;23.374;2023-02-04T04:02:07;94092.06;;;6.55;51.74
27958;BME280;15295;42.658;23.374;2023-02-04T04:04:33;94048.97;;;6.36;51.35
27958;BME280;15295;42.658;23.374;2023-02-04T04:07:01;94073.47;;;6.64;51.27
27958;BME280;15295;42.658;23.374;2023-02-04T04:09:31;94036.59;;;6.49;51.41
27958;BME280;15295;42.658;23.374;2023-02-04T04:11:57;94042.81;;;6.63;51.13
27958;BME280;15295;42.658;23.374;2023-02-04T04:14:23;94020.69;;;6.47;51.01
27958;BME280;15295;42.658;23.374;2023-02-04T04:16:50;94014.50;;;6.47;50.84
27958;BME280;15295;42.658;23.374;2023-02-04T04:19:20;94002.81;;;6.36;51.00
27958;BME280;15295;42.658;23.374;2023-02-04T04:21:51;94022.59;;;6.33;51.32
27958;BME280;15295;42.658;23.374;2023-02-04T04:24:17;94043.19;;;6.48;51.57
27958;BME280;15295;42.658;23.374;2023-02-04T04:26:47;94015.63;;;6.28;51.86
27958;BME280;15295;42.658;23.374;2023-02-04T04:29:12;94036.56;;;6.42;51.85
27958;BME280;15295;42.658;23.374;2023-02-04T04:31:39;94017.53;;;6.28;51.90
27958;BME280;15295;42.658;23.374;2023-02-04T04:34:09;94027.22;;;6.25;52.06
27958;BME280;15295;42.658;23.374;2023-02-04T04:36:43;94073.06;;;6.55;52.02
27958;BME280;15295;42.658;23.374;2023-02-04T04:39:10;94032.31;;;6.41;51.70
27958;BME280;15295;42.658;23.374;2023-02-04T04:41:37;94029.22;;;6.42;51.85
27958;BME280;15295;42.658;23.374;2023-02-04T04:44:08;94054.44;;;6.50;51.64
27958;BME280;15295;42.658;23.374;2023-02-04T04:46:36;94034.25;;;6.40;51.72
27958;BME280;15295;42.658;23.374;2023-02-04T04:49:06;94059.84;;;6.43;51.83
27958;BME280;15295;42.658;23.374;2023-02-04T04:51:31;94088.63;;;6.72;51.59
27958;BME280;15295;42.658;23.374;2023-02-04T04:53:58;94049.38;;;6.45;51.48
27958;BME280;15295;42.658;23.374;2023-02-04T04:56:26;94069.97;;;6.63;51.44
27958;BME280;15295;42.658;23.374;2023-02-04T04:58:54;94089.00;;;6.74;51.30
27958;BME280;15295;42.658;23.374;2023-02-04T05:01:21;94087.47;;;6.76;51.48
27958;BME280;15295;42.658;23.374;2023-02-04T05:03:47;94051.34;;;6.48;51.46
27958;BME280;15295;42.658;23.374;2023-02-04T05:06:15;94043.56;;;6.39;51.59
27958;BME280;15295;42.658;23.374;2023-02-04T05:08:41;94024.13;;;6.27;52.07
27958;BME280;15295;42.658;23.374;2023-02-04T05:11:07;94092.47;;;6.60;52.37
27958;BME280;15295;42.658;23.374;2023-02-04T05:13:38;94048.16;;;6.32;52.79
27958;BME280;15295;42.658;23.374;2023-02-04T05:16:05;94085.13;;;6.64;52.73
27958;BME280;15295;42.658;23.374;2023-02-04T05:18:34;94063.69;;;6.42;53.02
27958;BME280;15295;42.658;23.374;2023-02-04T05:21:03;94105.28;;;6.67;53.31
27958;BME280;15295;42.658;23.374;2023-02-04T05:23:39;94068.00;;;6.50;53.61
27958;BME280;15295;42.658;23.374;2023-02-04T05:26:06;94108.38;;;6.62;54.04
27958;BME280;15295;42.658;23.374;2023-02-04T05:28:32;94067.56;;;6.34;54.24
27958;BME280;15295;42.658;23.374;2023-02-04T05:30:59;94091.22;;;6.44;54.80
27958;BME280;15295;42.658;23.374;2023-02-04T05:33:27;94123.91;;;6.65;55.11
27958;BME280;15295;42.658;23.374;2023-02-04T05:35:58;94124.31;;;6.70;54.95
27958;BME280;15295;42.658;23.374;2023-02-04T05:38:25;94130.53;;;6.78;55.07
27958;BME280;15295;42.658;23.374;2023-02-04T05:41:03;94100.25;;;6.69;54.75
27958;BME280;15295;42.658;23.374;2023-02-04T05:43:30;94092.88;;;6.66;54.33
27958;BME280;15295;42.658;23.374;2023-02-04T05:45:58;94142.25;;;7.07;53.66
27958;BME280;15295;42.658;23.374;2023-02-04T05:48:25;94095.66;;;6.94;53.46
27958;BME280;15295;42.658;23.374;2023-02-04T05:50:52;94105.38;;;7.06;53.04
27958;BME280;15295;42.658;23.374;2023-02-04T05:53:18;94094.91;;;7.11;52.08
27958;BME280;15295;42.658;23.374;2023-02-04T05:55:48;94126.75;;;7.49;51.51
27958;BME280;15295;42.658;23.374;2023-02-04T05:58:19;94062.69;;;7.20;51.15
27958;BME280;15295;42.658;23.374;2023-02-04T06:00:46;94074.72;;;7.30;51.46
27958;BME280;15295;42.658;23.374;2023-02-04T06:03:12;94073.19;;;7.39;51.03
27958;BME280;15295;42.658;23.374;2023-02-04T06:05:39;94119.38;;;7.60;50.47
27958;BME280;15295;42.658;23.374;2023-02-04T06:08:09;94122.88;;;7.61;50.31
27958;BME280;15295;42.658;23.374;2023-02-04T06:10:35;94117.81;;;7.66;50.24
27958;BME280;15295;42.658;23.374;2023-02-04T06:13:03;94060.75;;;7.31;49.99
27958;BME280;15295;42.658;23.374;2023-02-04T06:15:29;94110.06;;;7.75;49.45
27958;BME280;15295;42.658;23.374;2023-02-04T06:17:55;94076.28;;;7.48;49.21
27958;BME280;15295;42.658;23.374;2023-02-04T06:20:22;94082.88;;;7.51;48.86
27958;BME280;15295;42.658;23.374;2023-02-04T06:22:49;94121.69;;;7.83;48.82
27958;BME280;15295;42.658;23.374;2023-02-04T06:25:16;94075.88;;;7.67;48.48
27958;BME280;15295;42.658;23.374;2023-02-04T06:27:43;94077.81;;;7.63;48.19
27958;BME280;15295;42.658;23.374;2023-02-04T06:30:12;94123.25;;;7.95;48.00
27958;BME280;15295;42.658;23.374;2023-02-04T06:32:38;94095.69;;;7.82;48.04
27958;BME280;15295;42.658;23.374;2023-02-04T06:35:06;94079.34;;;7.82;47.56
27958;BME280;15295;42.658;23.374;2023-02-04T06:37:36;94115.06;;;8.02;47.53
27958;BME280;15295;42.658;23.374;2023-02-04T06:40:03;94083.25;;;7.85;47.31
27958;BME280;15295;42.658;23.374;2023-02-04T06:42:31;94120.47;;;8.09;47.50
27958;BME280;15295;42.658;23.374;2023-02-04T06:45:08;94045.97;;;7.64;47.33
27958;BME280;15295;42.658;23.374;2023-02-04T06:47:39;94108.84;;;8.05;47.01
27958;BME280;15295;42.658;23.374;2023-02-04T06:50:11;94078.53;;;7.96;46.75
27958;BME280;15295;42.658;23.374;2023-02-04T06:52:47;94119.72;;;8.12;46.45
27958;BME280;15295;42.658;23.374;2023-02-04T06:55:17;94082.06;;;7.93;46.12
27958;BME280;15295;42.658;23.374;2023-02-04T06:57:44;94072.34;;;7.95;46.09
27958;BME280;15295;42.658;23.374;2023-02-04T07:00:15;94112.66;;;8.21;46.04
27958;BME280;15295;42.658;23.374;2023-02-04T07:02:50;94038.91;;;7.88;45.68
27958;BME280;15295;42.658;23.374;2023-02-04T07:05:17;94077.69;;;8.13;45.41
27958;BME280;15295;42.658;23.374;2023-02-04T07:07:45;94075.78;;;8.10;45.31
27958;BME280;15295;42.658;23.374;2023-02-04T07:10:12;94101.00;;;8.42;45.27
27958;BME280;15295;42.658;23.374;2023-02-04T07:12:47;94078.47;;;8.31;44.93
27958;BME280;15295;42.658;23.374;2023-02-04T07:15:17;94063.28;;;8.30;44.98
27958;BME280;15295;42.658;23.374;2023-02-04T07:17:49;94060.94;;;8.42;44.63
27958;BME280;15295;42.658;23.374;2023-02-04T07:20:19;94058.59;;;8.44;44.51
27958;BME280;15295;42.658;23.374;2023-02-04T07:22:49;94076.41;;;8.56;44.37
27958;BME280;15295;42.658;23.374;2023-02-04T07:25:23;94099.63;;;8.85;44.31
27958;BME280;15295;42.658;23.374;2023-02-04T07:27:51;94059.22;;;8.70;44.28
27958;BME280;15295;42.658;23.374;2023-02-04T07:30:17;94098.75;;;8.99;44.06
27958;BME280;15295;42.658;23.374;2023-02-04T07:32:47;94102.63;;;9.08;43.89
27958;BME280;15295;42.658;23.374;2023-02-04T07:35:15;94059.09;;;8.91;43.60
27958;BME280;15295;42.658;23.374;2023-02-04T07:37:50;94098.13;;;9.36;43.71
27958;BME280;15295;42.658;23.374;2023-02-04T07:40:16;94062.28;;;9.37;42.66
27958;BME280;15295;42.658;23.374;2023-02-04T07:42:42;94086.22;;;9.63;42.47
27958;BME280;15295;42.658;23.374;2023-02-04T07:45:11;94056.38;;;9.46;42.29
27958;BME280;15295;42.658;23.374;2023-02-04T07:47:41;94068.13;;;9.83;41.93
27958;BME280;15295;42.658;23.374;2023-02-04T07:50:07;94076.88;;;10.05;41.60
27958;BME280;15295;42.658;23.374;2023-02-04T07:52:37;94084.47;;;10.28;41.33
27958;BME280;15295;42.658;23.374;2023-02-04T07:55:06;94102.66;;;10.71;40.51
27958;BME280;15295;42.658;23.374;2023-02-04T07:57:45;94058.06;;;10.81;39.84
27958;BME280;15295;42.658;23.374;2023-02-04T08:00:13;94062.16;;;10.97;39.66
27958;BME280;15295;42.658;23.374;2023-02-04T08:02:41;94065.13;;;11.06;39.69
27958;BME280;15295;42.658;23.374;2023-02-04T08:05:10;94060.34;;;11.13;39.29
27958;BME280;15295;42.658;23.374;2023-02-04T08:07:49;94070.94;;;11.08;38.98
27958;BME280;15295;42.658;23.374;2023-02-04T08:10:25;94072.72;;;10.95;39.16
27958;BME280;15295;42.658;23.374;2023-02-04T08:12:51;94099.00;;;10.85;39.63
27958;BME280;15295;42.658;23.374;2023-02-04T08:15:31;94077.94;;;10.52;39.87
27958;BME280;15295;42.658;23.374;2023-02-04T08:18:00;94061.75;;;10.34;40.31
27958;BME280;15295;42.658;23.374;2023-02-04T08:20:50;94102.03;;;10.60;40.50
27958;BME280;15295;42.658;23.374;2023-02-04T08:23:16;94104.41;;;10.58;40.44
27958;BME280;15295;42.658;23.374;2023-02-04T08:25:49;94101.47;;;10.42;40.71
27958;BME280;15295;42.658;23.374;2023-02-04T08:28:21;94047.66;;;10.02;40.76
27958;BME280;15295;42.658;23.374;2023-02-04T08:30:53;94084.63;;;10.10;41.41
27958;BME280;15295;42.658;23.374;2023-02-04T08:33:23;94078.41;;;10.06;41.42
27958;BME280;15295;42.658;23.374;2023-02-04T08:35:50;94074.59;;;10.00;41.68
27958;BME280;15295;42.658;23.374;2023-02-04T08:38:18;94086.56;;;10.09;41.75
27958;BME280;15295;42.658;23.374;2023-02-04T08:40:50;94044.69;;;9.86;41.72
27958;BME280;15295;42.658;23.374;2023-02-04T08:43:26;94033.88;;;9.79;41.96
27958;BME280;15295;42.658;23.374;2023-02-04T08:45:53;94094.38;;;10.07;42.03
27958;BME280;15295;42.658;23.374;2023-02-04T08:48:19;94046.41;;;9.73;42.31
27958;BME280;15295;42.658;23.374;2023-02-04T08:50:47;94064.63;;;9.83;42.45
27958;BME280;15295;42.658;23.374;2023-02-04T08:53:14;94041.09;;;9.55;42.79
27958;BME280;15295;42.658;23.374;2023-02-04T08:55:43;94047.72;;;9.58;42.90
27958;BME280;15295;42.658;23.374;2023-02-04T08:58:16;94049.66;;;9.57;43.15
27958;BME280;15295;42.658;23.374;2023-02-04T09:00:45;94088.44;;;9.79;43.32
27958;BME280;15295;42.658;23.374;2023-02-04T09:03:14;94084.66;;;9.66;43.71
27958;BME280;15295;42.658;23.374;2023-02-04T09:05:44;94061.81;;;9.49;43.83
27958;BME280;15295;42.658;23.374;2023-02-04T09:08:09;94056.72;;;9.48;43.93
27958;BME280;15295;42.658;23.374;2023-02-04T09:10:35;94050.53;;;9.44;43.94
27958;BME280;15295;42.658;23.374;2023-02-04T09:13:03;94064.47;;;9.56;43.70
27958;BME280;15295;42.658;23.374;2023-02-04T09:15:29;94037.72;;;9.37;43.76
27958;BME280;15295;42.658;23.374;2023-02-04T09:18:00;94053.53;;;9.60;43.38
27958;BME280;15295;42.658;23.374;2023-02-04T09:20:37;94085.59;;;9.89;42.97
27958;BME280;15295;42.658;23.374;2023-02-04T09:23:09;94059.91;;;9.87;42.81
27958;BME280;15295;42.658;23.374;2023-02-04T09:25:37;94037.06;;;9.70;42.76
27958;BME280;15295;42.658;23.374;2023-02-04T09:28:06;94072.66;;;9.97;42.19
27958;BME280;15295;42.658;23.374;2023-02-04T09:30:38;94042.84;;;9.76;42.20
27958;BME280;15295;42.658;23.374;2023-02-04T09:33:07;94048.66;;;9.78;42.12
27958;BME280;15295;42.658;23.374;2023-02-04T09:35:36;94046.69;;;9.82;41.85
27958;BME280;15295;42.658;23.374;2023-02-04T09:38:03;94035.13;;;9.71;42.25
27958;BME280;15295;42.658;23.374;2023-02-04T09:40:52;94061.88;;;9.83;42.71
27958;BME280;15295;42.658;23.374;2023-02-04T09:43:28;94066.91;;;9.88;43.42
27958;BME280;15295;42.658;23.374;2023-02-04T09:45:55;94069.75;;;9.74;44.60
27958;BME280;15295;42.658;23.374;2023-02-04T09:48:24;94041.13;;;9.52;45.19
27958;BME280;15295;42.658;23.374;2023-02-04T09:51:01;94025.25;;;9.40;45.45
27958;BME280;15295;42.658;23.374;2023-02-04T09:53:30;94062.00;;;9.69;45.91
27958;BME280;15295;42.658;23.374;2023-02-04T09:56:09;94031.91;;;9.39;46.47
27958;BME280;15295;42.658;23.374;2023-02-04T09:58:35;94031.28;;;9.17;47.46
27958;BME280;15295;42.658;23.374;2023-02-04T10:01:18;94061.53;;;9.37;47.55
27958;BME280;15295;42.658;23.374;2023-02-04T10:03:46;94044.75;;;9.38;47.88
27958;BME280;15295;42.658;23.374;2023-02-04T10:06:20;94045.59;;;9.31;47.94
27958;BME280;15295;42.658;23.374;2023-02-04T10:08:47;94011.81;;;9.18;47.92
27958;BME280;15295;42.658;23.374;2023-02-04T10:11:23;94007.13;;;9.15;48.21
27958;BME280;15295;42.658;23.374;2023-02-04T10:13:56;93979.22;;;9.01;48.32
27958;BME280;15295;42.658;23.374;2023-02-04T10:16:29;94020.22;;;9.34;47.71
27958;BME280;15295;42.658;23.374;2023-02-04T10:19:02;93982.97;;;9.21;47.51
27958;BME280;15295;42.658;23.374;2023-02-04T10:21:35;94009.63;;;9.47;47.27
27958;BME280;15295;42.658;23.374;2023-02-04T10:24:09;93993.41;;;9.29;46.79
27958;BME280;15295;42.658;23.374;2023-02-04T10:26:37;94023.59;;;9.53;46.64
27958;BME280;15295;42.658;23.374;2023-02-04T10:29:17;93995.41;;;9.22;47.23
27958;BME280;15295;42.658;23.374;2023-02-04T10:31:45;93977.53;;;9.17;47.48
27958;BME280;15295;42.658;23.374;2023-02-04T10:34:12;94021.00;;;9.39;46.83
27958;BME280;15295;42.658;23.374;2023-02-04T10:36:39;94003.13;;;9.30;46.48
27958;BME280;15295;42.658;23.374;2023-02-04T10:39:20;94019.38;;;9.41;46.63
27958;BME280;15295;42.658;23.374;2023-02-04T10:41:53;93984.59;;;9.15;47.09
27958;BME280;15295;42.658;23.374;2023-02-04T10:44:34;93963.28;;;8.99;47.89
27958;BME280;15295;42.658;23.374;2023-02-04T10:47:27;94014.84;;;9.27;48.96
27958;BME280;15295;42.658;23.374;2023-02-04T10:49:59;93971.47;;;8.99;49.49
27958;BME280;15295;42.658;23.374;2023-02-04T10:52:37;94008.38;;;9.07;49.92
27958;BME280;15295;42.658;23.374;2023-02-04T10:55:07;93971.13;;;8.90;50.20
27958;BME280;15295;42.658;23.374;2023-02-04T10:57:38;94003.25;;;9.16;50.69
27958;BME280;15295;42.658;23.374;2023-02-04T11:00:15;94005.94;;;9.20;50.78
27958;BME280;15295;42.658;23.374;2023-02-04T11:02:42;93993.88;;;9.21;50.94
27958;BME280;15295;42.658;23.374;2023-02-04T11:05:39;93998.50;;;9.24;50.57
27958;BME280;15295;42.658;23.374;2023-02-04T11:08:39;93993.81;;;9.24;50.94
27958;BME280;15295;42.658;23.374;2023-02-04T11:11:17;93963.91;;;9.17;50.82
27958;BME280;15295;42.658;23.374;2023-02-04T11:16:33;93975.13;;;9.26;49.68
27958;BME280;15295;42.658;23.374;2023-02-04T11:19:13;93965.78;;;9.27;49.02
27958;BME280;15295;42.658;23.374;2023-02-04T11:21:43;93954.78;;;9.34;48.75
27958;BME280;15295;42.658;23.374;2023-02-04T11:24:36;93948.91;;;9.40;48.30
27958;BME280;15295;42.658;23.374;2023-02-04T11:27:22;93982.81;;;9.76;48.30
27958;BME280;15295;42.658;23.374;2023-02-04T11:29:49;93977.78;;;9.74;48.19
27958;BME280;15295;42.658;23.374;2023-02-04T11:32:34;93955.69;;;9.62;47.79
27958;BME280;15295;42.658;23.374;2023-02-04T11:37:41;93981.94;;;9.49;48.62
27958;BME280;15295;42.658;23.374;2023-02-04T11:40:36;94002.81;;;9.66;48.70
27958;BME280;15295;42.658;23.374;2023-02-04T11:43:14;93951.25;;;9.38;48.38
27958;BME280;15295;42.658;23.374;2023-02-04T11:45:46;93987.72;;;9.54;48.61
27958;BME280;15295;42.658;23.374;2023-02-04T11:48:17;93976.09;;;9.47;48.78
27958;BME280;15295;42.658;23.374;2023-02-04T11:50:55;93972.28;;;9.41;48.55
27958;BME280;15295;42.658;23.374;2023-02-04T11:53:28;93974.19;;;9.44;49.19
27958;BME280;15295;42.658;23.374;2023-02-04T11:55:58;93960.97;;;9.42;49.75
27958;BME280;15295;42.658;23.374;2023-02-04T11:58:25;93936.56;;;9.28;49.35
27958;BME280;15295;42.658;23.374;2023-02-04T12:00:55;93967.09;;;9.53;49.19
27958;BME280;15295;42.658;23.374;2023-02-04T12:03:27;93987.13;;;9.73;49.50
27958;BME280;15295;42.658;23.374;2023-02-04T12:05:57;93988.75;;;9.71;49.19
27958;BME280;15295;42.658;23.374;2023-02-04T12:08:34;93983.34;;;9.64;48.98
27958;BME280;15295;42.658;23.374;2023-02-04T12:11:24;93979.00;;;9.70;49.68
27958;BME280;15295;42.658;23.374;2023-02-04T12:13:57;93977.03;;;9.70;49.50
27958;BME280;15295;42.658;23.374;2023-02-04T12:16:26;93953.16;;;9.44;49.68
27958;BME280;15295;42.658;23.374;2023-02-04T12:18:52;93926.03;;;9.26;50.33
27958;BME280;15295;42.658;23.374;2023-02-04T12:21:17;93971.41;;;9.51;50.73
27958;BME280;15295;42.658;23.374;2023-02-04T12:23:49;93966.78;;;9.44;50.53
27958;BME280;15295;42.658;23.374;2023-02-04T12:26:25;93937.06;;;9.16;50.87
27958;BME280;15295;42.658;23.374;2023-02-04T12:28:51;93958.06;;;9.15;51.01
27958;BME280;15295;42.658;23.374;2023-02-04T12:31:19;93917.06;;;8.89;51.29
27958;BME280;15295;42.658;23.374;2023-02-04T12:33:46;93950.72;;;9.09;51.45
27958;BME280;15295;42.658;23.374;2023-02-04T12:36:12;93929.53;;;8.86;51.80
27958;BME280;15295;42.658;23.374;2023-02-04T12:38:37;93957.00;;;9.06;51.97
27958;BME280;15295;42.658;23.374;2023-02-04T12:41:03;93951.19;;;9.00;52.06
27958;BME280;15295;42.658;23.374;2023-02-04T12:43:31;93961.22;;;9.14;52.63
27958;BME280;15295;42.658;23.374;2023-02-04T12:45:57;93931.84;;;8.88;51.87
27958;BME280;15295;42.658;23.374;2023-02-04T12:48:22;93960.47;;;9.10;51.41
27958;BME280;15295;42.658;23.374;2023-02-04T12:50:49;93954.75;;;8.97;51.75
27958;BME280;15295;42.658;23.374;2023-02-04T12:53:16;93926.75;;;8.90;51.02
27958;BME280;15295;42.658;23.374;2023-02-04T12:55:42;93931.00;;;8.98;50.32
27958;BME280;15295;42.658;23.374;2023-02-04T12:58:11;93918.53;;;8.97;50.56
27958;BME280;15295;42.658;23.374;2023-02-04T13:00:38;93945.63;;;9.14;49.65
27958;BME280;15295;42.658;23.374;2023-02-04T13:03:03;93916.19;;;8.99;49.17
27958;BME280;15295;42.658;23.374;2023-02-04T13:05:43;93926.25;;;9.05;48.71
27958;BME280;15295;42.658;23.374;2023-02-04T13:08:09;93961.00;;;9.35;48.60
27958;BME280;15295;42.658;23.374;2023-02-04T13:10:35;93959.59;;;9.23;48.25
27958;BME280;15295;42.658;23.374;2023-02-04T13:13:02;93940.22;;;9.11;48.18
27958;BME280;15295;42.658;23.374;2023-02-04T13:15:29;93934.84;;;9.00;48.26
27958;BME280;15295;42.658;23.374;2023-02-04T13:17:54;93977.47;;;9.24;48.04
27958;BME280;15295;42.658;23.374;2023-02-04T13:20:21;93941.13;;;8.97;48.29